Time;durP1;ratioP1;P1;durP2;ratioP2;P2;SDS_P1;SDS_P2;PMS_P1;PMS_P2;Temp;Humidity;BMP_temperature;BMP_pressure;BME280_temperature;BME280_humidity;BME280_pressure;Samples;Min_cycle;Max_cycle;Signal;HPM_P1;HPM_P2
2021/12/23 00:01:53;;;;;;;18.80;11.63;;;;;;;-4.29;61.23;96125.78;5049790;28;20108;-65
2021/12/23 00:04:19;;;;;;;17.38;11.30;;;;;;;-4.00;60.78;96160.56;5049295;28;20044;-66
2021/12/23 00:06:44;;;;;;;20.08;11.35;;;;;;;-4.21;60.33;96110.75;5049905;28;20025;-65
2021/12/23 00:09:10;;;;;;;21.75;11.63;;;;;;;-3.94;59.92;96152.22;5049300;28;20057;-66
2021/12/23 00:11:36;;;;;;;21.02;10.75;;;;;;;-4.00;60.85;96147.97;5049533;28;20063;-67
2021/12/23 00:14:04;;;;;;;18.70;11.70;;;;;;;-4.04;59.67;96131.09;5049044;28;20029;-65
2021/12/23 00:24:45;;;;;;;20.98;13.23;;;;;;;-4.06;60.86;96145.38;5048336;28;20040;-65
2021/12/23 00:27:11;;;;;;;21.75;12.80;;;;;;;-4.31;60.61;96117.38;5048436;28;20033;-63
2021/12/23 00:29:38;;;;;;;22.92;13.43;;;;;;;-4.05;61.18;96157.13;5048807;28;20090;-65
2021/12/23 00:32:07;;;;;;;25.90;13.68;;;;;;;-4.07;60.96;96161.31;5048791;28;20029;-65
2021/12/23 00:34:33;;;;;;;19.27;12.70;;;;;;;-4.19;60.40;96143.53;5048856;28;20455;-66
2021/12/23 00:37:00;;;;;;;24.35;14.23;;;;;;;-4.10;61.07;96158.75;5048927;28;20021;-65
2021/12/23 00:39:26;;;;;;;20.75;12.90;;;;;;;-4.19;60.75;96149.41;5048517;28;20089;-65
2021/12/23 00:41:52;;;;;;;18.17;10.57;;;;;;;-4.02;59.70;96163.88;5048549;28;20479;-65
2021/12/23 00:44:18;;;;;;;16.83;11.07;;;;;;;-4.03;59.48;96163.03;5048766;28;20051;-65
2021/12/23 00:46:44;;;;;;;17.35;10.68;;;;;;;-4.21;58.88;96127.53;5048662;28;20499;-66
2021/12/23 00:49:10;;;;;;;17.65;11.23;;;;;;;-3.93;59.20;96158.97;5048003;28;20029;-65
2021/12/23 00:51:36;;;;;;;19.52;11.82;;;;;;;-4.09;59.92;96158.75;5048084;28;20565;-65
2021/12/23 00:54:05;;;;;;;18.50;10.57;;;;;;;-4.27;60.47;96151.81;5048732;28;20029;-65
2021/12/23 00:56:36;;;;;;;18.42;10.63;;;;;;;-4.14;59.94;96159.53;5048198;28;20021;-65
2021/12/23 00:59:03;;;;;;;13.23;9.40;;;;;;;-4.35;60.04;96115.63;5048670;28;20029;-65
2021/12/23 01:01:29;;;;;;;19.33;10.23;;;;;;;-4.15;59.94;96143.59;5048695;28;20036;-65
2021/12/23 01:03:54;;;;;;;18.55;11.90;;;;;;;-4.18;60.12;96143.56;5047775;28;20040;-67
2021/12/23 01:06:19;;;;;;;16.45;9.73;;;;;;;-3.99;58.93;96139.56;5048434;28;20675;-67
2021/12/23 01:08:45;;;;;;;14.48;8.95;;;;;;;-3.94;58.42;96130.38;5048480;28;20029;-65
2021/12/23 01:11:10;;;;;;;17.15;10.10;;;;;;;-4.00;58.70;96137.03;5048235;28;20057;-65
2021/12/23 01:13:37;;;;;;;18.73;10.38;;;;;;;-4.38;59.30;96110.53;5047885;28;20035;-65
2021/12/23 01:16:13;;;;;;;17.77;9.98;;;;;;;-4.22;60.09;96146.84;5047712;28;20042;-65
2021/12/23 01:18:44;;;;;;;14.57;8.10;;;;;;;-4.28;60.01;96135.03;5048089;28;20036;-66
2021/12/23 01:21:17;;;;;;;14.48;9.13;;;;;;;-4.27;60.00;96144.25;5048144;28;20704;-65
2021/12/23 01:23:46;;;;;;;18.23;10.07;;;;;;;-4.63;59.98;96079.19;5048056;28;20025;-66
2021/12/23 01:26:17;;;;;;;14.73;9.57;;;;;;;-4.44;59.58;96108.81;5048010;28;20499;-66
2021/12/23 01:28:42;;;;;;;16.85;10.05;;;;;;;-4.34;60.44;96139.16;5047484;28;20112;-67
2021/12/23 01:31:08;;;;;;;17.58;11.02;;;;;;;-4.36;60.32;96129.06;5047593;28;20112;-66
2021/12/23 01:33:33;;;;;;;16.35;9.63;;;;;;;-4.29;60.20;96135.00;5047898;28;20017;-65
2021/12/23 01:35:59;;;;;;;18.85;10.82;;;;;;;-4.53;60.26;96085.19;5047657;28;20186;-63
2021/12/23 01:38:24;;;;;;;21.15;11.18;;;;;;;-4.36;60.27;96126.53;5047919;28;20408;-66
2021/12/23 01:40:50;;;;;;;21.45;12.35;;;;;;;-4.36;60.95;96130.72;5047343;28;20024;-65
2021/12/23 01:43:17;;;;;;;24.30;13.48;;;;;;;-4.65;61.58;96081.69;5047730;28;20056;-65
2021/12/23 01:45:48;;;;;;;19.30;12.63;;;;;;;-4.22;61.70;96128.38;5047869;28;20033;-65
2021/12/23 01:48:14;;;;;;;22.65;11.75;;;;;;;-4.60;61.13;96074.19;5048106;28;20021;-65
2021/12/23 01:50:41;;;;;;;18.13;12.80;;;;;;;-4.90;61.54;96041.91;5047783;28;20033;-66
2021/12/23 01:53:07;;;;;;;22.25;12.85;;;;;;;-4.57;61.11;96124.59;5047553;28;20044;-64
2021/12/23 01:55:35;;;;;;;23.10;12.70;;;;;;;-4.83;62.03;96109.94;5047649;28;20609;-66
2021/12/23 01:58:01;;;;;;;27.77;16.02;;;;;;;-4.75;63.03;96130.19;5047523;28;20028;-64
2021/12/23 02:00:30;;;;;;;34.75;19.15;;;;;;;-4.99;63.26;96101.31;5051224;28;20394;-65
2021/12/23 02:02:56;;;;;;;28.63;18.73;;;;;;;-5.10;63.70;96102.88;5052009;28;20037;-65
2021/12/23 02:05:23;;;;;;;39.10;21.25;;;;;;;-4.89;63.97;96137.53;5051793;28;20044;-66
2021/12/23 02:07:49;;;;;;;36.85;22.20;;;;;;;-5.01;64.63;96135.69;5052176;28;20364;-66
2021/12/23 02:10:16;;;;;;;37.58;22.15;;;;;;;-5.04;64.18;96145.69;5051639;28;20029;-66
2021/12/23 02:12:44;;;;;;;39.17;22.98;;;;;;;-5.17;64.78;96153.88;5051913;28;20133;-65
2021/12/23 02:15:10;;;;;;;31.20;18.27;;;;;;;-5.23;64.44;96142.06;5051151;28;20060;-66
2021/12/23 02:17:37;;;;;;;28.08;18.48;;;;;;;-5.38;64.34;96156.88;5050509;28;20037;-67
2021/12/23 02:20:04;;;;;;;33.10;18.63;;;;;;;-5.50;65.55;96154.16;5051413;28;20037;-66
2021/12/23 02:22:30;;;;;;;32.72;18.08;;;;;;;-5.61;65.51;96134.69;5051320;28;20124;-66
2021/12/23 02:24:55;;;;;;;34.50;19.35;;;;;;;-5.67;65.49;96149.69;5051348;28;20535;-65
2021/12/23 02:27:21;;;;;;;32.15;18.58;;;;;;;-5.68;66.18;96157.19;5050848;28;20087;-65
2021/12/23 02:29:46;;;;;;;35.15;19.13;;;;;;;-5.78;65.73;96151.97;5051242;28;20032;-64
2021/12/23 02:32:12;;;;;;;32.65;19.67;;;;;;;-5.93;66.26;96144.19;5051415;28;20818;-65
2021/12/23 02:34:37;;;;;;;33.05;18.48;;;;;;;-6.07;67.02;96130.53;5051585;28;20455;-64
2021/12/23 02:37:03;;;;;;;27.60;17.65;;;;;;;-5.92;67.09;96148.34;5050870;28;20508;-63
2021/12/23 02:39:29;;;;;;;33.85;19.42;;;;;;;-5.94;66.60;96155.88;5051059;28;20093;-64
2021/12/23 02:41:55;;;;;;;33.05;18.42;;;;;;;-5.95;67.69;96148.31;5050867;28;20504;-66
2021/12/23 02:44:21;;;;;;;30.55;16.67;;;;;;;-5.87;67.30;96153.47;5050911;28;20025;-64
2021/12/23 02:46:47;;;;;;;28.88;17.33;;;;;;;-5.95;67.66;96156.69;5050594;28;20468;-69
2021/12/23 02:49:13;;;;;;;29.08;16.85;;;;;;;-5.96;66.58;96156.69;5051208;28;20435;-64
2021/12/23 02:51:39;;;;;;;29.10;17.25;;;;;;;-6.03;66.90;96150.72;5050537;28;20043;-65
2021/12/23 02:54:05;;;;;;;25.58;15.90;;;;;;;-6.39;67.65;96093.94;5051023;28;20431;-63
2021/12/23 02:56:30;;;;;;;30.95;15.73;;;;;;;-6.11;67.28;96143.03;5050967;28;20415;-65
2021/12/23 02:58:56;;;;;;;31.13;16.92;;;;;;;-6.15;68.06;96141.28;5050678;28;20029;-65
2021/12/23 03:01:22;;;;;;;29.42;17.38;;;;;;;-6.06;67.74;96143.13;5050484;28;20021;-66
2021/12/23 03:03:49;;;;;;;32.20;15.90;;;;;;;-7.00;67.99;95970.63;5050406;28;20569;-64
2021/12/23 03:06:18;;;;;;;30.23;16.08;;;;;;;-6.08;67.18;96112.13;5049417;28;20395;-64
2021/12/23 03:08:46;;;;;;;28.33;16.73;;;;;;;-6.31;68.00;96102.47;5050596;28;20052;-64
2021/12/23 03:11:16;;;;;;;24.75;15.20;;;;;;;-5.97;66.86;96123.22;5048837;28;20462;-65
2021/12/23 03:13:42;;;;;;;25.55;14.82;;;;;;;-5.76;66.69;96127.72;5050571;28;20526;-64
2021/12/23 03:16:08;;;;;;;24.30;15.38;;;;;;;-5.84;66.94;96106.66;5050193;28;20037;-65
2021/12/23 03:18:35;;;;;;;26.15;16.70;;;;;;;-5.76;67.37;96121.88;5050773;28;20029;-65
2021/12/23 03:21:01;;;;;;;28.60;16.58;;;;;;;-5.65;66.23;96125.41;5050598;28;20025;-66
2021/12/23 03:23:27;;;;;;;28.95;16.55;;;;;;;-5.77;65.94;96115.13;5049132;28;20029;-64
2021/12/23 03:25:53;;;;;;;42.40;18.35;;;;;;;-5.83;66.26;96125.94;5050324;28;20486;-63
2021/12/23 03:28:19;;;;;;;29.90;16.40;;;;;;;-5.87;66.86;96124.19;5049911;28;20036;-64
2021/12/23 03:30:45;;;;;;;25.50;16.55;;;;;;;-5.82;66.98;96125.13;5049663;28;20112;-65
2021/12/23 03:33:12;;;;;;;27.30;15.65;;;;;;;-6.25;67.18;96068.25;5049763;28;20440;-64
2021/12/23 03:35:38;;;;;;;27.45;17.45;;;;;;;-5.87;66.86;96128.34;5049740;28;20053;-64
2021/12/23 03:38:05;;;;;;;27.83;16.85;;;;;;;-5.85;67.41;96126.72;5049617;28;20427;-65
2021/12/23 03:40:31;;;;;;;29.63;16.52;;;;;;;-5.82;68.13;96129.28;5046655;28;20021;-65
2021/12/23 03:42:56;;;;;;;26.10;16.85;;;;;;;-5.96;67.11;96102.25;5049515;28;20045;-64
2021/12/23 03:45:23;;;;;;;26.13;15.65;;;;;;;-6.03;67.17;96094.59;5049296;28;20360;-63
2021/12/23 03:47:50;;;;;;;28.73;16.95;;;;;;;-6.08;67.13;96107.09;5049390;28;20470;-64
2021/12/23 03:50:20;;;;;;;26.55;16.77;;;;;;;-5.81;67.18;96133.50;5049585;28;20480;-64
2021/12/23 03:52:46;;;;;;;27.88;15.10;;;;;;;-5.77;67.79;96130.22;5048638;28;20480;-63
2021/12/23 03:55:14;;;;;;;24.05;14.70;;;;;;;-5.81;66.48;96111.72;5049275;28;20017;-64
2021/12/23 03:57:39;;;;;;;28.63;17.35;;;;;;;-5.79;67.52;96124.31;5047590;28;20472;-64
2021/12/23 04:00:09;;;;;;;28.60;15.95;;;;;;;-5.63;66.11;96126.28;5049860;28;20036;-64
2021/12/23 04:02:35;;;;;;;22.80;14.38;;;;;;;-5.60;66.54;96133.03;5049958;28;20064;-65
2021/12/23 04:05:00;;;;;;;25.38;14.18;;;;;;;-5.60;65.91;96133.03;5049033;28;20456;-65
2021/12/23 04:07:26;;;;;;;26.52;14.45;;;;;;;-5.72;66.28;96142.06;5049738;28;20024;-64
2021/12/23 04:09:51;;;;;;;25.67;15.70;;;;;;;-5.78;67.43;96149.47;5049317;28;20017;-63
2021/12/23 04:12:17;;;;;;;22.75;14.20;;;;;;;-5.87;66.73;96131.75;5049522;28;20060;-65
2021/12/23 04:14:42;;;;;;;24.08;15.43;;;;;;;-5.82;66.88;96136.81;5049208;28;20032;-64
2021/12/23 04:17:08;;;;;;;22.10;13.50;;;;;;;-5.83;66.51;96120.91;5048722;28;20029;-64
2021/12/23 04:19:33;;;;;;;25.27;14.23;;;;;;;-5.98;66.85;96106.44;5049485;28;20644;-64
2021/12/23 04:22:00;;;;;;;24.55;14.10;;;;;;;-6.08;67.46;96098.69;5048516;28;20029;-63
2021/12/23 04:24:26;;;;;;;25.90;15.13;;;;;;;-5.80;67.50;96148.59;5048951;28;20428;-64
2021/12/23 04:26:51;;;;;;;23.80;14.90;;;;;;;-5.78;67.17;96144.44;5049150;28;20104;-64
2021/12/23 04:29:17;;;;;;;23.50;14.38;;;;;;;-5.76;67.07;96137.78;5048543;28;20121;-66
2021/12/23 04:31:43;;;;;;;27.50;16.23;;;;;;;-5.87;67.58;96135.91;5048783;28;20021;-64
2021/12/23 04:34:09;;;;;;;23.45;15.70;;;;;;;-5.73;66.48;96147.88;5048896;28;20032;-66
2021/12/23 04:36:34;;;;;;;24.27;16.92;;;;;;;-6.04;67.50;96110.50;5049336;28;20146;-65
2021/12/23 04:39:00;;;;;;;29.58;16.50;;;;;;;-5.87;67.92;96146.81;5049097;28;20086;-65
2021/12/23 04:41:26;;;;;;;29.23;16.35;;;;;;;-5.94;67.04;96140.78;5048721;28;20089;-64
2021/12/23 04:43:52;;;;;;;28.33;15.90;;;;;;;-5.88;67.16;96146.78;5048954;28;20048;-64
2021/12/23 04:46:18;;;;;;;26.98;14.77;;;;;;;-5.89;66.84;96142.56;5048862;28;20033;-64
2021/12/23 04:48:45;;;;;;;30.40;14.48;;;;;;;-5.98;66.70;96144.13;5048545;28;20033;-62
2021/12/23 04:51:11;;;;;;;21.60;13.43;;;;;;;-6.00;68.03;96142.38;5048540;28;20036;-63
2021/12/23 04:53:37;;;;;;;24.52;14.30;;;;;;;-6.00;67.59;96143.25;5036380;28;20025;-64
2021/12/23 04:56:02;;;;;;;23.08;14.90;;;;;;;-6.09;67.69;96138.03;5028844;28;20400;-64
2021/12/23 04:58:28;;;;;;;26.55;14.48;;;;;;;-6.16;68.05;96147.13;5028462;28;20543;-64
2021/12/23 05:00:53;;;;;;;27.73;14.98;;;;;;;-6.49;67.65;96115.50;5029889;28;20444;-62
2021/12/23 05:03:22;;;;;;;28.63;14.98;;;;;;;-6.26;67.49;96152.78;5043072;28;20033;-62
2021/12/23 05:05:47;;;;;;;26.05;15.48;;;;;;;-6.31;67.89;96157.69;5044467;28;20475;-62
2021/12/23 05:08:14;;;;;;;24.65;14.63;;;;;;;-6.71;69.18;96104.16;5043086;28;20065;-61
2021/12/23 05:10:40;;;;;;;21.52;13.38;;;;;;;-6.37;68.41;96151.69;5045454;28;20341;-62
2021/12/23 05:13:06;;;;;;;23.48;13.82;;;;;;;-6.63;68.63;96106.00;5041165;28;20110;-62
2021/12/23 05:15:32;;;;;;;22.17;14.23;;;;;;;-6.56;68.99;96113.69;5044484;28;20032;-62
2021/12/23 05:17:58;;;;;;;22.58;14.15;;;;;;;-6.51;69.29;96148.88;5041434;28;20128;-63
2021/12/23 05:20:24;;;;;;;21.85;13.85;;;;;;;-6.63;68.67;96136.94;5045251;28;20458;-61
2021/12/23 05:22:49;;;;;;;23.85;14.60;;;;;;;-6.47;69.06;96155.69;5043243;28;20063;-61
2021/12/23 05:25:16;;;;;;;24.27;14.00;;;;;;;-6.50;68.51;96153.94;5045055;28;20959;-61
2021/12/23 05:27:43;;;;;;;22.52;14.25;;;;;;;-6.54;68.64;96156.34;5039438;28;20389;-62
2021/12/23 05:30:15;;;;;;;21.88;12.05;;;;;;;-6.58;69.29;96157.09;5044824;28;20385;-62
2021/12/23 05:32:43;;;;;;;;;;;;;;;-6.63;69.43;96151.16;5043728;28;20632;-62
2021/12/23 05:35:13;;;;;;;19.58;11.75;;;;;;;-6.81;68.86;96131.53;5043429;28;20634;-63
2021/12/23 05:37:39;;;;;;;18.13;10.85;;;;;;;-6.92;69.70;96122.09;5042332;28;20040;-62
2021/12/23 05:40:07;;;;;;;26.02;12.63;;;;;;;-6.70;69.47;96161.03;5044159;28;20033;-63
2021/12/23 05:42:32;;;;;;;19.27;12.52;;;;;;;-6.72;69.82;96162.69;5043617;28;20367;-62
2021/12/23 05:44:59;;;;;;;21.90;12.73;;;;;;;-6.67;70.10;96158.59;5024426;28;20065;-60
2021/12/23 05:47:25;;;;;;;23.17;13.20;;;;;;;-6.53;69.46;96158.88;5027132;28;20724;-62
2021/12/23 05:49:50;;;;;;;22.92;13.57;;;;;;;-6.44;68.81;96148.22;5021686;28;20034;-61
2021/12/23 05:52:16;;;;;;;21.20;13.27;;;;;;;-6.88;68.31;96077.88;5021830;28;20053;-61
2021/12/23 05:54:41;;;;;;;22.27;14.38;;;;;;;-6.34;67.71;96154.28;5023211;28;20481;-62
2021/12/23 05:57:08;;;;;;;24.17;14.55;;;;;;;-6.35;68.64;96145.88;5027900;28;20036;-61
2021/12/23 05:59:34;;;;;;;23.70;14.68;;;;;;;-6.36;67.76;96148.34;5027762;28;20033;-64
2021/12/23 06:02:01;;;;;;;24.60;15.05;;;;;;;-6.30;67.60;96151.00;5027999;28;20033;-62
2021/12/23 06:04:27;;;;;;;21.73;13.30;;;;;;;-6.25;68.46;96156.97;5027053;28;20037;-61
2021/12/23 06:06:53;;;;;;;24.45;13.27;;;;;;;-6.16;66.93;96157.16;5027374;28;20025;-61
2021/12/23 06:09:19;;;;;;;19.30;13.27;;;;;;;-6.57;66.68;96091.91;5027841;28;20087;-61
2021/12/23 06:11:44;;;;;;;23.45;14.48;;;;;;;-6.62;66.89;96087.59;5027647;28;20033;-61
2021/12/23 06:14:10;;;;;;;24.17;14.05;;;;;;;-6.17;66.25;96152.09;5027620;28;20480;-62
2021/12/23 06:16:36;;;;;;;24.75;14.95;;;;;;;-6.08;66.85;96157.31;5027469;28;20037;-62
2021/12/23 06:19:01;;;;;;;25.08;14.98;;;;;;;-6.67;66.63;96065.78;5027564;28;20385;-62
2021/12/23 06:21:29;;;;;;;29.63;15.95;;;;;;;-6.00;65.76;96170.88;5027945;28;20033;-62
2021/12/23 06:23:55;;;;;;;24.75;15.23;;;;;;;-6.24;65.89;96105.94;5027612;28;20538;-62
2021/12/23 06:26:22;;;;;;;23.85;14.18;;;;;;;-6.24;66.17;96110.13;5027764;28;20029;-63
2021/12/23 06:28:47;;;;;;;19.38;12.10;;;;;;;-5.82;65.03;96157.78;5028032;28;20061;-61
2021/12/23 06:31:13;;;;;;;22.58;13.82;;;;;;;-5.60;65.60;96169.06;5027858;28;20064;-62
2021/12/23 06:33:39;;;;;;;25.80;13.63;;;;;;;-5.58;64.44;96161.56;5027183;28;20083;-62
2021/12/23 06:36:05;;;;;;;23.48;14.32;;;;;;;-5.50;64.74;96171.75;5027383;28;20030;-63
2021/12/23 06:38:30;;;;;;;23.35;15.80;;;;;;;-5.43;64.86;96169.34;5021503;28;20069;-61
2021/12/23 06:40:56;;;;;;;28.05;17.02;;;;;;;-5.51;64.06;96163.34;5024340;28;20029;-61
2021/12/23 06:43:21;;;;;;;28.67;18.00;;;;;;;-5.53;65.10;96157.47;5022290;28;20034;-60
2021/12/23 06:45:47;;;;;;;22.10;12.88;;;;;;;-5.68;64.44;96137.94;5023768;28;20060;-61
2021/12/23 06:48:12;;;;;;;24.60;14.27;;;;;;;-5.88;64.86;96124.16;5027076;28;20472;-63
2021/12/23 06:50:39;;;;;;;26.27;15.18;;;;;;;-5.91;64.40;96098.16;5024807;28;20108;-57
2021/12/23 06:53:05;;;;;;;28.48;16.67;;;;;;;-5.38;63.61;96156.88;5027215;28;20125;-61
2021/12/23 06:55:31;;;;;;;34.97;17.95;;;;;;;-5.33;63.87;96155.28;5025359;28;20533;-61
2021/12/23 06:57:56;;;;;;;30.95;18.00;;;;;;;-5.32;63.65;96163.69;5027538;28;20034;-61
2021/12/23 07:00:25;;;;;;;29.00;17.08;;;;;;;-5.28;63.12;96153.72;5026093;28;20021;-61
2021/12/23 07:02:51;;;;;;;33.55;19.17;;;;;;;-5.35;62.95;96145.19;5024971;28;20036;-62
2021/12/23 07:05:17;;;;;;;40.80;20.65;;;;;;;-5.31;63.00;96158.69;5023977;28;20034;-60
2021/12/23 07:07:58;;;;;;;30.98;19.48;;;;;;;-5.34;62.92;96161.16;5021058;28;20550;-61
2021/12/23 07:10:26;;;;;;;30.33;19.98;;;;;;;-5.33;63.19;96162.81;5024888;28;20393;-63
2021/12/23 07:12:56;;;;;;;38.00;21.23;;;;;;;-5.30;63.16;96157.84;5028034;28;20412;-59
2021/12/23 07:15:24;;;;;;;42.65;22.92;;;;;;;-5.29;63.15;96161.22;5023991;28;20522;-58
2021/12/23 07:17:51;;;;;;;35.92;22.40;;;;;;;-5.28;62.06;96162.91;5027614;28;20052;-60
2021/12/23 07:20:16;;;;;;;47.22;26.02;;;;;;;-5.54;62.86;96120.59;5025524;28;20029;-62
2021/12/23 07:22:42;;;;;;;47.45;26.30;;;;;;;-5.35;63.50;96156.94;5026693;28;20036;-60
2021/12/23 07:25:08;;;;;;;40.67;25.83;;;;;;;-5.47;63.04;96146.69;5025416;28;20033;-61
2021/12/23 07:27:34;;;;;;;35.92;23.73;;;;;;;-5.47;62.41;96136.63;5013114;28;20044;-62
2021/12/23 07:29:59;;;;;;;37.88;23.35;;;;;;;-5.15;62.75;96177.38;5013857;28;20030;-66
2021/12/23 07:32:24;;;;;;;48.00;27.25;;;;;;;-5.30;61.63;96144.44;5012864;28;20037;-61
2021/12/23 07:34:50;;;;;;;64.03;34.58;;;;;;;-5.11;61.73;96176.63;5010547;28;20033;-61
2021/12/23 07:37:23;;;;;;;58.17;34.40;;;;;;;-5.25;62.56;96181.41;5021758;28;20045;-63
2021/12/23 07:39:54;;;;;;;51.95;30.98;;;;;;;-5.30;62.21;96184.66;5003804;28;20045;-66
2021/12/23 07:42:20;;;;;;;55.60;30.20;;;;;;;-6.05;61.57;96041.84;5023554;28;20049;-61
2021/12/23 07:44:46;;;;;;;44.20;27.17;;;;;;;-5.47;61.56;96099.75;5027124;28;20034;-51
2021/12/23 07:47:12;;;;;;;46.17;27.38;;;;;;;-4.89;61.10;96184.50;5023528;28;20030;-56
2021/12/23 07:49:38;;;;;;;64.50;38.60;;;;;;;-4.76;60.71;96183.88;5027114;28;20021;-55
2021/12/23 07:52:06;;;;;;;64.80;34.05;;;;;;;-5.27;60.78;96069.06;5029412;28;20116;-61
2021/12/23 07:54:32;;;;;;;75.28;42.50;;;;;;;-4.90;60.32;96135.00;5025516;28;20034;-58
2021/12/23 07:56:58;;;;;;;73.82;41.25;;;;;;;-4.56;60.38;96180.81;5028408;28;20028;-50
2021/12/23 07:59:23;;;;;;;69.10;41.13;;;;;;;-4.81;59.59;96104.94;5028318;28;20769;-53
2021/12/23 08:01:49;;;;;;;70.32;41.95;;;;;;;-4.32;59.49;96176.09;5029172;28;20029;-59
2021/12/23 08:04:14;;;;;;;76.50;41.72;;;;;;;-4.51;59.33;96146.47;5028180;28;20132;-60
2021/12/23 08:06:39;;;;;;;78.32;42.55;;;;;;;-4.52;59.28;96152.34;5028292;28;20030;-53
2021/12/23 08:09:05;;;;;;;74.85;40.08;;;;;;;-4.15;58.73;96173.81;5028574;28;20064;-62
2021/12/23 08:11:31;;;;;;;69.72;40.58;;;;;;;-4.01;58.61;96161.38;5028631;28;20091;-55
2021/12/23 08:13:56;;;;;;;64.05;39.45;;;;;;;-4.05;58.21;96149.56;5028214;28;20056;-59
2021/12/23 08:16:21;;;;;;;56.35;36.03;;;;;;;-3.96;57.45;96114.41;5026361;28;20037;-54
2021/12/23 08:18:47;;;;;;;60.03;36.80;;;;;;;-0.68;51.08;96153.13;5026310;28;20029;-57
2021/12/23 08:21:12;;;;;;;54.78;34.80;;;;;;;1.42;44.40;96152.94;5028557;28;20064;-57
2021/12/23 08:23:38;;;;;;;56.90;33.50;;;;;;;4.02;38.59;96132.31;5027944;28;20409;-54
2021/12/23 08:26:10;;;;;;;65.45;35.53;;;;;;;5.07;34.86;96021.00;5028061;28;20041;-55
2021/12/23 08:28:36;;;;;;;58.80;36.03;;;;;;;6.65;33.02;96119.94;5028416;28;20489;-58
2021/12/23 08:31:01;;;;;;;53.30;35.80;;;;;;;7.15;31.38;96066.25;5028582;28;20080;-51
2021/12/23 08:33:27;;;;;;;51.95;35.80;;;;;;;6.27;31.58;96119.34;5028143;28;20514;-61
2021/12/23 08:35:52;;;;;;;50.85;34.58;;;;;;;7.23;30.77;96111.31;5029419;28;20527;-64
2021/12/23 08:38:18;;;;;;;48.65;31.90;;;;;;;7.81;29.53;96080.31;5028670;28;20087;-57
2021/12/23 08:40:46;;;;;;;42.15;30.80;;;;;;;7.57;30.07;96110.22;5028205;28;20036;-58
2021/12/23 08:43:13;;;;;;;48.35;32.38;;;;;;;8.21;28.28;96104.56;5028456;28;20088;-59
2021/12/23 08:45:39;;;;;;;46.85;29.55;;;;;;;7.73;29.19;96042.88;5028418;28;20045;-54
2021/12/23 08:48:06;;;;;;;40.10;27.02;;;;;;;9.24;27.20;96066.38;5028561;28;20030;-52
2021/12/23 08:50:31;;;;;;;37.38;25.15;;;;;;;9.94;26.20;96047.09;5028163;28;20408;-55
2021/12/23 08:52:58;;;;;;;32.38;22.58;;;;;;;10.18;25.32;96081.22;5028117;28;20144;-64
2021/12/23 08:55:27;;;;;;;35.92;24.15;;;;;;;11.17;25.20;96080.13;5028128;28;20473;-54
2021/12/23 08:57:52;;;;;;;30.00;22.10;;;;;;;10.71;24.27;96069.41;5028414;28;20048;-58
2021/12/23 09:00:19;;;;;;;32.80;20.58;;;;;;;11.30;24.06;96061.47;5026965;28;20021;-63
2021/12/23 09:02:48;;;;;;;32.67;22.98;;;;;;;12.29;22.79;96050.38;5027398;28;20108;-59
2021/12/23 09:05:13;;;;;;;33.17;21.95;;;;;;;12.68;22.76;96059.50;5027576;28;20421;-60
2021/12/23 09:07:39;;;;;;;29.13;20.58;;;;;;;13.40;21.62;95997.66;5028007;28;20032;-61
2021/12/23 09:10:07;;;;;;;31.85;20.13;;;;;;;13.83;21.36;96047.88;5027333;28;20029;-53
2021/12/23 09:12:32;;;;;;;27.77;20.25;;;;;;;13.94;21.08;96038.53;5027528;28;20043;-52
2021/12/23 09:14:58;;;;;;;24.45;19.45;;;;;;;15.23;19.45;96027.03;5027478;28;20037;-55
2021/12/23 09:17:23;;;;;;;28.23;20.35;;;;;;;15.10;19.04;95988.97;5026799;28;20039;-53
2021/12/23 09:19:49;;;;;;;24.70;18.55;;;;;;;15.80;18.85;95954.84;5025888;28;20033;-59
2021/12/23 09:22:14;;;;;;;30.20;19.90;;;;;;;17.99;16.60;96004.16;5027427;28;20030;-57
2021/12/23 09:24:45;;;;;;;28.25;21.73;;;;;;;18.48;16.22;96010.75;5027440;28;20507;-57
2021/12/23 09:34:54;;;;;;;32.78;23.60;;;;;;;16.69;17.84;95991.97;5026966;28;20533;-61
2021/12/23 09:37:20;;;;;;;31.73;25.20;;;;;;;17.74;16.85;95997.31;5027073;28;20025;-63
2021/12/23 09:39:52;;;;;;;32.08;23.98;;;;;;;17.52;16.25;95982.47;5027159;28;20030;-60
2021/12/23 09:42:20;;;;;;;30.02;23.50;;;;;;;18.44;16.29;95998.88;5027039;28;20049;-55
2021/12/23 09:44:47;;;;;;;31.85;23.55;;;;;;;17.89;16.33;96001.41;5026953;28;20038;-58
2021/12/23 09:47:14;;;;;;;29.42;23.17;;;;;;;17.93;15.87;95963.69;5027289;28;20056;-54
2021/12/23 09:49:39;;;;;;;31.13;23.75;;;;;;;18.88;15.78;95981.47;5026554;28;20539;-57
2021/12/23 09:52:07;;;;;;;33.50;25.30;;;;;;;19.27;15.45;95963.47;5027032;28;20120;-60
2021/12/23 09:54:35;;;;;;;29.27;23.58;;;;;;;18.69;15.44;95979.50;5026824;28;20469;-56
2021/12/23 09:57:01;;;;;;;31.80;24.45;;;;;;;18.93;15.62;95970.66;5026959;28;20029;-61
2021/12/23 09:59:27;;;;;;;31.40;25.20;;;;;;;19.70;15.02;95955.63;5026356;28;20034;-61
2021/12/23 10:01:55;;;;;;;37.35;26.48;;;;;;;19.59;15.21;95954.72;5026687;28;20094;-61
2021/12/23 10:04:20;;;;;;;30.13;23.92;;;;;;;20.42;14.48;95933.72;5026149;28;20108;-62
2021/12/23 10:06:47;;;;;;;39.63;27.95;;;;;;;17.13;16.13;95908.94;5026880;28;20025;-62
2021/12/23 10:09:20;;;;;;;35.20;26.63;;;;;;;16.66;16.82;95942.72;5026839;28;20034;-57
2021/12/23 10:31:40;;;;;;;34.92;27.45;;;;;;;20.80;13.78;95910.34;4969064;28;20069;-59
2021/12/23 10:39:39;;;;;;;;;;;;;;;21.32;12.82;95910.00;4969579;28;20263;-58
2021/12/23 10:42:24;;;;;;;34.75;26.83;;;;;;;21.49;13.16;95906.66;4969502;28;19999;-59
2021/12/23 10:45:06;;;;;;;34.45;26.60;;;;;;;21.71;13.00;95904.66;4969256;28;20055;-58
2021/12/23 10:47:49;;;;;;;34.55;25.88;;;;;;;21.98;13.00;95906.50;4968914;28;20035;-56
2021/12/23 10:50:51;;;;;;;34.22;26.67;;;;;;;22.08;13.11;95896.75;4968485;28;20042;-59
2021/12/23 10:53:43;;;;;;;36.97;26.60;;;;;;;22.27;12.87;95892.38;4968594;28;20023;-59
2021/12/23 10:59:18;;;;;;;35.88;27.38;;;;;;;22.05;12.71;95847.16;4968482;28;20465;-59
2021/12/23 11:02:02;;;;;;;38.63;27.97;;;;;;;22.19;12.47;95877.38;4969141;28;20034;-58
2021/12/23 11:04:30;;;;;;;38.67;30.25;;;;;;;22.00;12.42;95852.03;4982884;28;20269;-59
2021/12/23 11:07:17;;;;;;;35.40;29.02;;;;;;;22.12;12.69;95863.16;5025374;28;20041;-58
2021/12/23 11:10:34;;;;;;;33.05;26.95;;;;;;;22.06;12.76;95869.00;5010318;28;20037;-58
2021/12/23 11:43:51;;;;;;;31.45;25.48;;;;;;;21.33;13.13;95806.72;4987212;28;20437;-59
2021/12/23 11:46:26;;;;;;;30.25;23.05;;;;;;;21.01;13.41;95818.44;4987149;28;20162;-60
2021/12/23 11:49:34;;;;;;;34.33;25.13;;;;;;;21.19;13.46;95811.47;4987569;28;20049;-60
2021/12/23 12:13:07;;;;;;;34.45;23.00;;;;;;;19.48;14.52;95803.13;4862495;29;20076;-71
2021/12/23 12:15:47;;;;;;;33.88;24.15;;;;;;;19.06;14.97;95787.50;4885392;29;20539;-76
2021/12/23 12:22:11;;;;;;;27.23;21.40;;;;;;;18.47;15.32;95761.00;4812925;29;20039;-73
2021/12/23 12:24:46;;;;;;;31.10;21.17;;;;;;;16.65;16.29;95766.59;4812725;29;20038;-75
2021/12/23 12:27:13;;;;;;;26.88;21.05;;;;;;;18.06;16.19;95790.50;4813059;29;20506;-61
2021/12/23 12:29:39;;;;;;;29.40;20.55;;;;;;;18.14;15.30;95691.53;4813033;29;20042;-60
2021/12/23 12:32:05;;;;;;;22.85;18.55;;;;;;;18.91;15.40;95766.13;4813053;29;20072;-62
2021/12/23 12:34:36;;;;;;;24.13;18.63;;;;;;;19.21;14.83;95762.66;4812962;29;20494;-61
2021/12/23 12:37:04;;;;;;;25.50;18.92;;;;;;;19.20;14.79;95765.41;4813051;29;20417;-61
2021/12/23 12:40:12;;;;;;;25.17;20.58;;;;;;;18.80;15.06;95771.38;4812837;29;20039;-64
2021/12/23 12:43:30;;;;;;;;;;;;;;;;;;;;;
2021/12/23 12:52:51;;;;;;;29.95;20.65;;;;;;;18.43;15.91;95764.84;4657418;30;20140;-60
2021/12/23 12:55:23;;;;;;;31.20;21.38;;;;;;;18.43;15.74;95770.06;4671499;30;20046;-64
2021/12/23 12:57:54;;;;;;;26.08;18.38;;;;;;;18.15;15.36;95745.38;4681235;30;20607;-60
2021/12/23 13:00:38;;;;;;;29.30;20.05;;;;;;;16.80;16.68;95765.44;4723284;30;20210;-60
2021/12/23 13:03:07;;;;;;;27.15;18.30;;;;;;;13.83;19.34;95750.56;4741450;30;20567;-60
2021/12/23 13:05:39;;;;;;;24.58;18.75;;;;;;;11.83;21.19;95773.66;4741409;30;20044;-60
2021/12/23 13:08:25;;;;;;;25.40;18.23;;;;;;;10.12;23.69;95798.84;4726347;30;20540;-61
2021/12/23 13:10:51;;;;;;;27.17;19.48;;;;;;;8.98;24.97;95796.38;4740809;30;20090;-61